sensor_id;sensor_type;location;lat;lon;timestamp;pressure;altitude;pressure_sealevel;temperature;humidity
550;BME280;20066;48.764;9.176;2023-02-14T00:00:08;100043.91;;;4.60;64.78
550;BME280;20066;48.764;9.176;2023-02-14T00:02:35;100027.81;;;4.38;65.60
550;BME280;20066;48.764;9.176;2023-02-14T00:05:04;100021.88;;;4.55;65.09
550;BME280;20066;48.764;9.176;2023-02-14T00:07:32;100021.13;;;3.81;66.76
550;BME280;20066;48.764;9.176;2023-02-14T00:09:59;100017.34;;;3.36;68.03
550;BME280;20066;48.764;9.176;2023-02-14T00:12:27;100021.50;;;3.23;67.66
550;BME280;20066;48.764;9.176;2023-02-14T00:14:55;100026.81;;;3.42;71.46
550;BME280;20066;48.764;9.176;2023-02-14T00:17:41;100025.78;;;3.89;68.30
550;BME280;20066;48.764;9.176;2023-02-14T00:20:10;100020.69;;;4.47;65.88
550;BME280;20066;48.764;9.176;2023-02-14T00:22:38;100021.69;;;4.51;64.72
550;BME280;20066;48.764;9.176;2023-02-14T00:25:06;100019.28;;;3.95;68.04
550;BME280;20066;48.764;9.176;2023-02-14T00:27:33;100022.50;;;4.38;66.14
550;BME280;20066;48.764;9.176;2023-02-14T00:30:01;100021.31;;;4.44;64.13
550;BME280;20066;48.764;9.176;2023-02-14T00:32:29;100022.16;;;3.99;65.90
550;BME280;20066;48.764;9.176;2023-02-14T00:34:59;100030.38;;;4.43;64.64
550;BME280;20066;48.764;9.176;2023-02-14T00:37:27;100033.97;;;3.60;66.06
550;BME280;20066;48.764;9.176;2023-02-14T00:39:54;100027.88;;;4.19;66.75
550;BME280;20066;48.764;9.176;2023-02-14T00:42:22;100027.88;;;4.33;65.59
550;BME280;20066;48.764;9.176;2023-02-14T00:44:50;100026.44;;;4.41;65.75
550;BME280;20066;48.764;9.176;2023-02-14T00:47:18;100028.59;;;4.66;64.69
550;BME280;20066;48.764;9.176;2023-02-14T00:49:46;100018.13;;;4.15;65.47
550;BME280;20066;48.764;9.176;2023-02-14T00:52:15;100025.03;;;4.57;63.84
550;BME280;20066;48.764;9.176;2023-02-14T00:54:42;100025.19;;;4.88;63.37
550;BME280;20066;48.764;9.176;2023-02-14T00:57:10;100022.50;;;4.52;65.19
550;BME280;20066;48.764;9.176;2023-02-14T00:59:38;100023.38;;;4.47;62.53
550;BME280;20066;48.764;9.176;2023-02-14T01:02:06;100021.69;;;3.78;66.08
550;BME280;20066;48.764;9.176;2023-02-14T01:04:34;100023.06;;;4.21;64.50
550;BME280;20066;48.764;9.176;2023-02-14T01:07:01;100023.06;;;4.62;63.60
550;BME280;20066;48.764;9.176;2023-02-14T01:09:31;100029.66;;;4.24;65.40
550;BME280;20066;48.764;9.176;2023-02-14T01:11:59;100029.34;;;3.98;66.05
550;BME280;20066;48.764;9.176;2023-02-14T01:14:26;100031.22;;;4.25;64.51
550;BME280;20066;48.764;9.176;2023-02-14T01:16:54;100028.94;;;3.91;65.29
550;BME280;20066;48.764;9.176;2023-02-14T01:19:22;100034.56;;;4.03;65.90
550;BME280;20066;48.764;9.176;2023-02-14T01:21:49;100036.28;;;4.40;64.14
550;BME280;20066;48.764;9.176;2023-02-14T01:24:17;100034.00;;;4.75;63.26
550;BME280;20066;48.764;9.176;2023-02-14T01:26:46;100034.09;;;4.83;63.35
550;BME280;20066;48.764;9.176;2023-02-14T01:29:14;100021.88;;;4.27;64.00
550;BME280;20066;48.764;9.176;2023-02-14T01:31:42;100023.06;;;4.35;65.32
550;BME280;20066;48.764;9.176;2023-02-14T01:34:10;100019.88;;;4.33;63.43
550;BME280;20066;48.764;9.176;2023-02-14T01:36:38;100015.66;;;4.18;65.91
550;BME280;20066;48.764;9.176;2023-02-14T01:39:09;100010.31;;;4.18;64.78
550;BME280;20066;48.764;9.176;2023-02-14T01:41:41;100017.25;;;3.41;67.73
550;BME280;20066;48.764;9.176;2023-02-14T01:47:12;100007.19;;;4.30;64.63
550;BME280;20066;48.764;9.176;2023-02-14T01:49:43;100018.97;;;3.97;67.00
550;BME280;20066;48.764;9.176;2023-02-14T01:52:15;100015.75;;;4.13;63.93
550;BME280;20066;48.764;9.176;2023-02-14T01:54:48;100021.59;;;4.43;64.33
550;BME280;20066;48.764;9.176;2023-02-14T01:57:19;100019.88;;;4.33;64.68
550;BME280;20066;48.764;9.176;2023-02-14T01:59:51;100016.63;;;4.36;64.06
550;BME280;20066;48.764;9.176;2023-02-14T02:02:22;100019.13;;;4.46;62.99
550;BME280;20066;48.764;9.176;2023-02-14T02:04:52;100006.00;;;4.22;65.37
550;BME280;20066;48.764;9.176;2023-02-14T02:07:23;100017.34;;;4.42;63.99
550;BME280;20066;48.764;9.176;2023-02-14T02:09:54;100011.09;;;4.05;65.22
550;BME280;20066;48.764;9.176;2023-02-14T02:12:23;100016.50;;;3.86;66.44
550;BME280;20066;48.764;9.176;2023-02-14T02:14:53;100022.94;;;4.13;64.97
550;BME280;20066;48.764;9.176;2023-02-14T02:17:27;100024.47;;;3.86;65.75
550;BME280;20066;48.764;9.176;2023-02-14T02:29:19;100010.78;;;3.47;67.44
550;BME280;20066;48.764;9.176;2023-02-14T02:32:24;100009.81;;;3.57;68.27
550;BME280;20066;48.764;9.176;2023-02-14T02:35:18;100015.13;;;3.89;66.62
550;BME280;20066;48.764;9.176;2023-02-14T02:37:58;100015.31;;;3.46;68.65
550;BME280;20066;48.764;9.176;2023-02-14T02:40:35;100002.91;;;4.02;66.51
550;BME280;20066;48.764;9.176;2023-02-14T02:43:16;100006.75;;;4.09;66.09
550;BME280;20066;48.764;9.176;2023-02-14T02:45:51;100000.84;;;4.26;63.82
550;BME280;20066;48.764;9.176;2023-02-14T02:48:41;99998.81;;;3.77;66.63
550;BME280;20066;48.764;9.176;2023-02-14T02:51:17;99998.19;;;4.12;65.09
550;BME280;20066;48.764;9.176;2023-02-14T02:54:10;100011.28;;;3.95;65.52
550;BME280;20066;48.764;9.176;2023-02-14T02:56:46;100014.06;;;3.06;67.92
550;BME280;20066;48.764;9.176;2023-02-14T02:59:19;100017.44;;;2.74;69.64
550;BME280;20066;48.764;9.176;2023-02-14T03:01:52;100011.09;;;3.08;68.79
550;BME280;20066;48.764;9.176;2023-02-14T03:04:21;100009.56;;;3.39;68.68
550;BME280;20066;48.764;9.176;2023-02-14T03:07:08;99992.63;;;3.68;67.75
550;BME280;20066;48.764;9.176;2023-02-14T03:09:51;99999.84;;;4.08;64.87
550;BME280;20066;48.764;9.176;2023-02-14T03:12:36;99995.03;;;3.97;64.62
550;BME280;20066;48.764;9.176;2023-02-14T03:15:12;100003.25;;;3.68;65.71
550;BME280;20066;48.764;9.176;2023-02-14T03:17:54;100009.81;;;4.16;63.91
550;BME280;20066;48.764;9.176;2023-02-14T03:20:34;100012.78;;;4.28;63.40
550;BME280;20066;48.764;9.176;2023-02-14T03:23:13;100019.09;;;3.91;65.24
550;BME280;20066;48.764;9.176;2023-02-14T03:25:46;100012.19;;;3.58;65.97
550;BME280;20066;48.764;9.176;2023-02-14T03:28:19;100006.06;;;4.04;64.37
550;BME280;20066;48.764;9.176;2023-02-14T03:30:55;100016.19;;;3.88;64.23
550;BME280;20066;48.764;9.176;2023-02-14T03:33:30;100021.31;;;3.84;65.88
550;BME280;20066;48.764;9.176;2023-02-14T03:36:00;100008.53;;;4.00;63.75
550;BME280;20066;48.764;9.176;2023-02-14T03:38:35;100020.34;;;3.48;65.88
550;BME280;20066;48.764;9.176;2023-02-14T03:41:11;100018.34;;;3.72;65.71
550;BME280;20066;48.764;9.176;2023-02-14T03:43:44;100010.81;;;4.20;63.86
550;BME280;20066;48.764;9.176;2023-02-14T03:46:17;100012.28;;;4.26;62.90
550;BME280;20066;48.764;9.176;2023-02-14T03:48:48;100009.53;;;4.18;63.17
550;BME280;20066;48.764;9.176;2023-02-14T03:51:18;100010.13;;;4.15;62.44
550;BME280;20066;48.764;9.176;2023-02-14T03:53:52;100007.03;;;4.08;63.75
550;BME280;20066;48.764;9.176;2023-02-14T03:56:26;100003.00;;;3.97;63.93
550;BME280;20066;48.764;9.176;2023-02-14T03:59:00;100004.47;;;3.89;65.57
550;BME280;20066;48.764;9.176;2023-02-14T04:01:35;99999.84;;;3.81;64.83
550;BME280;20066;48.764;9.176;2023-02-14T04:04:06;100000.78;;;3.71;66.40
550;BME280;20066;48.764;9.176;2023-02-14T04:06:35;100011.53;;;3.66;64.97
550;BME280;20066;48.764;9.176;2023-02-14T04:09:04;100003.00;;;3.83;65.30
550;BME280;20066;48.764;9.176;2023-02-14T04:11:32;100005.13;;;3.16;65.68
550;BME280;20066;48.764;9.176;2023-02-14T04:14:01;99999.09;;;3.29;68.47
550;BME280;20066;48.764;9.176;2023-02-14T04:16:29;99997.66;;;3.37;66.35
550;BME280;20066;48.764;9.176;2023-02-14T04:19:16;100007.91;;;3.43;66.66
550;BME280;20066;48.764;9.176;2023-02-14T04:21:49;99999.63;;;2.94;67.53
550;BME280;20066;48.764;9.176;2023-02-14T04:24:19;99993.03;;;2.91;67.40
550;BME280;20066;48.764;9.176;2023-02-14T04:26:47;99997.31;;;3.25;67.24
550;BME280;20066;48.764;9.176;2023-02-14T04:29:37;99996.38;;;3.15;67.10
550;BME280;20066;48.764;9.176;2023-02-14T04:32:06;99997.31;;;3.25;67.98
550;BME280;20066;48.764;9.176;2023-02-14T04:34:34;99994.66;;;3.57;66.56
550;BME280;20066;48.764;9.176;2023-02-14T04:37:02;99997.28;;;3.76;65.09
550;BME280;20066;48.764;9.176;2023-02-14T04:39:31;99993.41;;;3.68;64.96
550;BME280;20066;48.764;9.176;2023-02-14T04:41:59;99986.63;;;3.76;65.72
550;BME280;20066;48.764;9.176;2023-02-14T04:44:27;99991.31;;;3.65;65.47
550;BME280;20066;48.764;9.176;2023-02-14T04:46:55;99985.19;;;3.51;66.16
550;BME280;20066;48.764;9.176;2023-02-14T04:49:22;99984.44;;;3.32;67.41
550;BME280;20066;48.764;9.176;2023-02-14T04:51:50;99990.41;;;3.56;66.90
550;BME280;20066;48.764;9.176;2023-02-14T04:54:18;99992.25;;;3.74;66.01
550;BME280;20066;48.764;9.176;2023-02-14T04:56:47;99995.13;;;3.45;65.64
550;BME280;20066;48.764;9.176;2023-02-14T04:59:15;99996.66;;;3.33;68.15
550;BME280;20066;48.764;9.176;2023-02-14T05:01:43;99992.91;;;3.66;66.10
550;BME280;20066;48.764;9.176;2023-02-14T05:04:11;99999.25;;;3.84;65.96
550;BME280;20066;48.764;9.176;2023-02-14T05:06:39;99995.19;;;3.86;65.06
550;BME280;20066;48.764;9.176;2023-02-14T05:09:06;99992.03;;;3.84;64.64
550;BME280;20066;48.764;9.176;2023-02-14T05:11:34;99985.16;;;3.83;64.65
550;BME280;20066;48.764;9.176;2023-02-14T05:14:03;99981.31;;;3.89;64.66
550;BME280;20066;48.764;9.176;2023-02-14T05:16:31;99990.56;;;3.78;63.99
550;BME280;20066;48.764;9.176;2023-02-14T05:18:59;99986.69;;;3.71;64.84
550;BME280;20066;48.764;9.176;2023-02-14T05:21:26;99993.22;;;3.78;65.08
550;BME280;20066;48.764;9.176;2023-02-14T05:23:58;99983.59;;;3.96;64.66
550;BME280;20066;48.764;9.176;2023-02-14T05:26:26;99990.00;;;3.49;65.11
550;BME280;20066;48.764;9.176;2023-02-14T05:28:54;99982.06;;;3.63;65.88
550;BME280;20066;48.764;9.176;2023-02-14T05:31:24;99981.88;;;3.59;66.00
550;BME280;20066;48.764;9.176;2023-02-14T05:33:52;99984.91;;;3.52;66.30
550;BME280;20066;48.764;9.176;2023-02-14T05:36:19;99985.06;;;3.88;63.94
550;BME280;20066;48.764;9.176;2023-02-14T05:38:47;99988.22;;;3.90;65.21
550;BME280;20066;48.764;9.176;2023-02-14T05:41:15;99994.41;;;3.40;65.97
550;BME280;20066;48.764;9.176;2023-02-14T05:43:42;99993.50;;;3.77;65.37
550;BME280;20066;48.764;9.176;2023-02-14T05:46:10;99991.97;;;4.03;63.16
550;BME280;20066;48.764;9.176;2023-02-14T05:48:39;99990.09;;;4.04;64.14
550;BME280;20066;48.764;9.176;2023-02-14T05:51:09;99982.69;;;3.87;63.91
550;BME280;20066;48.764;9.176;2023-02-14T05:53:37;99998.31;;;3.29;67.53
550;BME280;20066;48.764;9.176;2023-02-14T05:56:05;99992.78;;;3.58;65.06
550;BME280;20066;48.764;9.176;2023-02-14T05:58:33;100001.28;;;3.73;65.74
550;BME280;20066;48.764;9.176;2023-02-14T06:01:00;99998.53;;;3.78;65.75
550;BME280;20066;48.764;9.176;2023-02-14T06:03:28;100002.66;;;3.71;64.98
550;BME280;20066;48.764;9.176;2023-02-14T06:05:57;100006.91;;;3.72;65.70
550;BME280;20066;48.764;9.176;2023-02-14T06:08:25;100008.63;;;3.49;65.53
550;BME280;20066;48.764;9.176;2023-02-14T06:10:53;100012.69;;;3.09;67.68
550;BME280;20066;48.764;9.176;2023-02-14T06:13:21;100013.72;;;3.13;66.62
550;BME280;20066;48.764;9.176;2023-02-14T06:15:50;100010.25;;;2.75;68.97
550;BME280;20066;48.764;9.176;2023-02-14T06:18:18;100009.94;;;2.76;69.12
550;BME280;20066;48.764;9.176;2023-02-14T06:20:45;100018.09;;;2.61;70.53
550;BME280;20066;48.764;9.176;2023-02-14T06:23:14;100012.31;;;3.15;68.69
550;BME280;20066;48.764;9.176;2023-02-14T06:25:42;100016.69;;;2.69;68.72
550;BME280;20066;48.764;9.176;2023-02-14T06:28:10;100020.50;;;2.63;68.73
550;BME280;20066;48.764;9.176;2023-02-14T06:30:38;100018.91;;;2.38;70.29
550;BME280;20066;48.764;9.176;2023-02-14T06:33:06;100019.25;;;2.55;70.51
550;BME280;20066;48.764;9.176;2023-02-14T06:35:33;100024.66;;;2.26;71.71
550;BME280;20066;48.764;9.176;2023-02-14T06:38:01;100028.28;;;2.97;69.66
550;BME280;20066;48.764;9.176;2023-02-14T06:40:30;100022.09;;;3.01;69.00
550;BME280;20066;48.764;9.176;2023-02-14T06:42:58;100029.38;;;2.29;69.62
550;BME280;20066;48.764;9.176;2023-02-14T06:45:26;100021.66;;;2.75;70.84
550;BME280;20066;48.764;9.176;2023-02-14T06:47:53;100023.28;;;3.46;67.23
550;BME280;20066;48.764;9.176;2023-02-14T06:50:21;100029.19;;;3.25;68.97
550;BME280;20066;48.764;9.176;2023-02-14T06:52:49;100024.44;;;3.40;67.81
550;BME280;20066;48.764;9.176;2023-02-14T06:55:17;100026.50;;;3.11;68.41
550;BME280;20066;48.764;9.176;2023-02-14T06:57:47;100031.22;;;3.33;66.67
550;BME280;20066;48.764;9.176;2023-02-14T07:00:15;100025.28;;;3.54;65.74
550;BME280;20066;48.764;9.176;2023-02-14T07:02:43;100027.97;;;3.36;67.64
550;BME280;20066;48.764;9.176;2023-02-14T07:05:11;100016.91;;;3.93;65.22
550;BME280;20066;48.764;9.176;2023-02-14T07:07:40;100016.50;;;4.00;65.77
550;BME280;20066;48.764;9.176;2023-02-14T07:10:09;100012.19;;;4.18;64.43
550;BME280;20066;48.764;9.176;2023-02-14T07:12:36;100012.91;;;3.77;66.03
550;BME280;20066;48.764;9.176;2023-02-14T07:15:08;100019.25;;;3.49;66.16
550;BME280;20066;48.764;9.176;2023-02-14T07:17:37;100012.88;;;4.10;64.04
550;BME280;20066;48.764;9.176;2023-02-14T07:20:06;100012.59;;;4.39;63.51
550;BME280;20066;48.764;9.176;2023-02-14T07:22:35;100008.94;;;4.21;62.43
550;BME280;20066;48.764;9.176;2023-02-14T07:25:03;100014.69;;;4.42;62.79
550;BME280;20066;48.764;9.176;2023-02-14T07:27:31;100012.88;;;4.64;61.71
550;BME280;20066;48.764;9.176;2023-02-14T07:29:59;100010.75;;;4.53;62.69
550;BME280;20066;48.764;9.176;2023-02-14T07:32:29;100008.06;;;4.12;64.56
550;BME280;20066;48.764;9.176;2023-02-14T07:34:56;100015.34;;;4.34;63.54
550;BME280;20066;48.764;9.176;2023-02-14T07:37:24;100013.81;;;4.60;63.47
550;BME280;20066;48.764;9.176;2023-02-14T07:39:52;100010.81;;;4.75;62.11
550;BME280;20066;48.764;9.176;2023-02-14T07:42:19;100011.41;;;4.17;62.90
550;BME280;20066;48.764;9.176;2023-02-14T07:44:47;100010.25;;;4.51;63.35
550;BME280;20066;48.764;9.176;2023-02-14T07:47:15;100011.41;;;4.17;64.45
550;BME280;20066;48.764;9.176;2023-02-14T07:49:44;100013.81;;;4.60;63.75
550;BME280;20066;48.764;9.176;2023-02-14T07:52:12;100009.66;;;4.40;63.68
550;BME280;20066;48.764;9.176;2023-02-14T07:54:39;100006.06;;;4.04;64.47
550;BME280;20066;48.764;9.176;2023-02-14T07:57:07;100011.22;;;4.14;63.49
550;BME280;20066;48.764;9.176;2023-02-14T07:59:35;100011.84;;;3.92;64.36
550;BME280;20066;48.764;9.176;2023-02-14T08:02:03;100004.88;;;4.23;63.84
550;BME280;20066;48.764;9.176;2023-02-14T08:04:31;100006.75;;;4.23;65.27
550;BME280;20066;48.764;9.176;2023-02-14T08:07:00;100003.81;;;4.65;62.84
550;BME280;20066;48.764;9.176;2023-02-14T08:09:28;100006.53;;;4.38;63.95
550;BME280;20066;48.764;9.176;2023-02-14T08:11:57;99999.63;;;4.87;62.12
550;BME280;20066;48.764;9.176;2023-02-14T08:14:43;100003.53;;;4.67;63.11
550;BME280;20066;48.764;9.176;2023-02-14T08:17:11;99998.19;;;4.67;62.70
550;BME280;20066;48.764;9.176;2023-02-14T08:19:39;99999.09;;;4.21;64.28
550;BME280;20066;48.764;9.176;2023-02-14T08:22:08;100002.25;;;3.31;66.96
550;BME280;20066;48.764;9.176;2023-02-14T08:24:36;99994.75;;;4.12;66.22
550;BME280;20066;48.764;9.176;2023-02-14T08:27:04;100006.84;;;4.73;63.60
550;BME280;20066;48.764;9.176;2023-02-14T08:29:32;100004.31;;;4.67;64.54
550;BME280;20066;48.764;9.176;2023-02-14T08:31:59;99999.13;;;5.21;62.30
550;BME280;20066;48.764;9.176;2023-02-14T08:34:28;100003.44;;;5.30;63.29
550;BME280;20066;48.764;9.176;2023-02-14T08:36:55;99999.97;;;7.65;56.51
550;BME280;20066;48.764;9.176;2023-02-14T08:39:24;100005.97;;;10.65;50.54
550;BME280;20066;48.764;9.176;2023-02-14T08:41:52;100001.72;;;13.43;41.38
550;BME280;20066;48.764;9.176;2023-02-14T08:44:20;100003.50;;;14.20;39.28
550;BME280;20066;48.764;9.176;2023-02-14T08:46:47;99999.06;;;14.35;37.51
550;BME280;20066;48.764;9.176;2023-02-14T08:49:15;99998.00;;;14.95;37.19
550;BME280;20066;48.764;9.176;2023-02-14T08:51:43;99997.22;;;14.65;37.68
550;BME280;20066;48.764;9.176;2023-02-14T08:54:11;99999.28;;;12.65;40.56
550;BME280;20066;48.764;9.176;2023-02-14T08:56:40;100004.69;;;13.00;40.15
550;BME280;20066;48.764;9.176;2023-02-14T08:59:08;99993.63;;;13.05;40.13
550;BME280;20066;48.764;9.176;2023-02-14T09:01:36;99999.00;;;14.05;38.08
550;BME280;20066;48.764;9.176;2023-02-14T09:04:04;99995.63;;;14.90;36.47
550;BME280;20066;48.764;9.176;2023-02-14T09:06:32;100003.03;;;16.01;34.63
550;BME280;20066;48.764;9.176;2023-02-14T09:09:00;99998.31;;;17.00;33.09
550;BME280;20066;48.764;9.176;2023-02-14T09:12:01;100002.81;;;16.71;32.38
550;BME280;20066;48.764;9.176;2023-02-14T09:24:46;99992.69;;;18.75;29.41
550;BME280;20066;48.764;9.176;2023-02-14T09:27:14;99982.72;;;16.93;32.36
550;BME280;20066;48.764;9.176;2023-02-14T09:29:42;99978.31;;;17.58;32.58
550;BME280;20066;48.764;9.176;2023-02-14T09:32:10;99989.75;;;19.39;29.73
550;BME280;20066;48.764;9.176;2023-02-14T09:34:38;99983.88;;;20.03;28.42
550;BME280;20066;48.764;9.176;2023-02-14T09:37:05;99975.88;;;17.24;31.83
550;BME280;20066;48.764;9.176;2023-02-14T09:39:52;99968.53;;;18.81;30.85
550;BME280;20066;48.764;9.176;2023-02-14T09:42:38;99975.06;;;16.41;34.05
550;BME280;20066;48.764;9.176;2023-02-14T09:45:10;99965.09;;;15.64;34.27
550;BME280;20066;48.764;9.176;2023-02-14T09:47:43;99961.91;;;11.26;42.97
550;BME280;20066;48.764;9.176;2023-02-14T09:50:19;99961.25;;;10.24;46.79
550;BME280;20066;48.764;9.176;2023-02-14T09:52:51;99963.91;;;10.12;47.58
550;BME280;20066;48.764;9.176;2023-02-14T09:55:25;99955.75;;;10.33;48.48
550;BME280;20066;48.764;9.176;2023-02-14T09:58:03;99955.25;;;11.35;46.21
550;BME280;20066;48.764;9.176;2023-02-14T10:00:35;99963.53;;;11.14;47.97
550;BME280;20066;48.764;9.176;2023-02-14T10:03:20;99951.16;;;14.95;38.85
550;BME280;20066;48.764;9.176;2023-02-14T10:06:02;99941.84;;;16.72;34.50
550;BME280;20066;48.764;9.176;2023-02-14T10:08:41;99948.34;;;11.50;43.49
550;BME280;20066;48.764;9.176;2023-02-14T10:11:18;99944.03;;;11.33;44.96
550;BME280;20066;48.764;9.176;2023-02-14T10:13:50;99945.88;;;10.00;50.31
550;BME280;20066;48.764;9.176;2023-02-14T10:16:22;99944.03;;;14.53;39.93
550;BME280;20066;48.764;9.176;2023-02-14T10:18:56;99940.66;;;13.00;41.52
550;BME280;20066;48.764;9.176;2023-02-14T10:21:30;99946.88;;;11.68;44.94
550;BME280;20066;48.764;9.176;2023-02-14T10:24:03;99940.63;;;12.27;42.09
550;BME280;20066;48.764;9.176;2023-02-14T10:26:38;99931.59;;;8.85;51.64
550;BME280;20066;48.764;9.176;2023-02-14T10:29:12;99934.66;;;9.98;48.64
550;BME280;20066;48.764;9.176;2023-02-14T10:31:45;99928.97;;;9.30;50.11
550;BME280;20066;48.764;9.176;2023-02-14T10:34:26;99931.19;;;15.88;37.37
550;BME280;20066;48.764;9.176;2023-02-14T10:37:10;99920.34;;;13.29;39.69
550;BME280;20066;48.764;9.176;2023-02-14T10:39:59;99925.47;;;11.16;45.08
550;BME280;20066;48.764;9.176;2023-02-14T10:42:39;99916.78;;;13.90;40.89
550;BME280;20066;48.764;9.176;2023-02-14T10:45:16;99917.16;;;11.80;43.24
550;BME280;20066;48.764;9.176;2023-02-14T10:47:53;99914.31;;;12.24;42.82
550;BME280;20066;48.764;9.176;2023-02-14T10:50:27;99907.75;;;14.58;38.70
550;BME280;20066;48.764;9.176;2023-02-14T10:53:08;99910.88;;;15.27;37.78
550;BME280;20066;48.764;9.176;2023-02-14T10:55:45;99905.16;;;12.28;41.68
550;BME280;20066;48.764;9.176;2023-02-14T10:58:17;99908.59;;;12.99;41.23
550;BME280;20066;48.764;9.176;2023-02-14T11:00:53;99906.31;;;13.20;40.70
550;BME280;20066;48.764;9.176;2023-02-14T11:03:22;99908.44;;;13.53;40.33
550;BME280;20066;48.764;9.176;2023-02-14T11:05:50;99900.03;;;13.35;41.28
550;BME280;20066;48.764;9.176;2023-02-14T11:08:24;99892.63;;;13.78;40.39
550;BME280;20066;48.764;9.176;2023-02-14T11:10:53;99890.50;;;12.45;42.63
550;BME280;20066;48.764;9.176;2023-02-14T11:13:32;99885.94;;;11.79;44.31
550;BME280;20066;48.764;9.176;2023-02-14T11:16:02;99878.53;;;11.92;43.37
550;BME280;20066;48.764;9.176;2023-02-14T11:18:31;99878.28;;;13.51;40.50
550;BME280;20066;48.764;9.176;2023-02-14T11:21:04;99878.31;;;12.16;42.58
550;BME280;20066;48.764;9.176;2023-02-14T11:23:34;99875.66;;;16.26;35.83
550;BME280;20066;48.764;9.176;2023-02-14T11:26:04;99872.56;;;16.27;35.31
550;BME280;20066;48.764;9.176;2023-02-14T11:28:36;99874.78;;;15.19;
550;BME280;20066;48.764;9.176;2023-02-14T11:31:09;99869.03;;;17.27;33.54
550;BME280;20066;48.764;9.176;2023-02-14T11:33:39;99867.84;;;14.88;37.80
550;BME280;20066;48.764;9.176;2023-02-14T11:36:10;99855.06;;;13.73;39.06
550;BME280;20066;48.764;9.176;2023-02-14T11:38:40;99860.50;;;17.32;34.33
550;BME280;20066;48.764;9.176;2023-02-14T11:41:10;99858.59;;;15.26;37.16
550;BME280;20066;48.764;9.176;2023-02-14T11:43:42;99848.81;;;14.18;37.68
550;BME280;20066;48.764;9.176;2023-02-14T11:46:15;99840.56;;;16.82;34.79
550;BME280;20066;48.764;9.176;2023-02-14T11:48:57;99842.09;;;14.08;39.10
550;BME280;20066;48.764;9.176;2023-02-14T11:51:30;99837.69;;;12.09;43.12
550;BME280;20066;48.764;9.176;2023-02-14T11:54:01;99834.38;;;11.81;43.76
550;BME280;20066;48.764;9.176;2023-02-14T11:56:44;99837.63;;;10.40;47.41
550;BME280;20066;48.764;9.176;2023-02-14T11:59:24;99830.34;;;10.40;48.50
550;BME280;20066;48.764;9.176;2023-02-14T12:01:55;99828.94;;;10.06;49.33
550;BME280;20066;48.764;9.176;2023-02-14T12:04:31;99826.28;;;9.94;50.28
550;BME280;20066;48.764;9.176;2023-02-14T12:07:16;99823.88;;;10.29;49.25
550;BME280;20066;48.764;9.176;2023-02-14T12:09:45;99821.53;;;10.16;49.33
550;BME280;20066;48.764;9.176;2023-02-14T12:12:19;99816.91;;;10.28;48.43
550;BME280;20066;48.764;9.176;2023-02-14T12:14:50;99811.16;;;11.29;46.98
550;BME280;20066;48.764;9.176;2023-02-14T12:17:24;99812.97;;;10.94;48.30
550;BME280;20066;48.764;9.176;2023-02-14T12:20:01;99807.38;;;9.79;50.02
550;BME280;20066;48.764;9.176;2023-02-14T12:22:34;99806.56;;;10.02;51.11
550;BME280;20066;48.764;9.176;2023-02-14T12:25:11;99798.09;;;9.64;51.38
550;BME280;20066;48.764;9.176;2023-02-14T12:27:45;99806.44;;;10.11;49.75
550;BME280;20066;48.764;9.176;2023-02-14T12:30:19;99796.69;;;10.47;49.62
550;BME280;20066;48.764;9.176;2023-02-14T12:32:49;99796.84;;;9.61;51.10
550;BME280;20066;48.764;9.176;2023-02-14T12:35:34;99803.41;;;10.00;49.78
550;BME280;20066;48.764;9.176;2023-02-14T12:38:10;99791.72;;;10.33;49.24
550;BME280;20066;48.764;9.176;2023-02-14T12:40:51;99793.22;;;10.46;49.15
550;BME280;20066;48.764;9.176;2023-02-14T12:43:41;99785.28;;;10.37;49.16
550;BME280;20066;48.764;9.176;2023-02-14T12:46:20;99780.41;;;11.30;47.62
550;BME280;20066;48.764;9.176;2023-02-14T12:52:15;99766.06;;;11.42;46.15
550;BME280;20066;48.764;9.176;2023-02-14T12:54:59;99766.41;;;11.09;47.35
550;BME280;20066;48.764;9.176;2023-02-14T12:57:38;99771.13;;;10.96;48.57
550;BME280;20066;48.764;9.176;2023-02-14T13:00:21;99772.16;;;11.07;48.39
550;BME280;20066;48.764;9.176;2023-02-14T13:03:08;99762.84;;;10.45;48.97
550;BME280;20066;48.764;9.176;2023-02-14T13:05:53;99763.09;;;10.40;50.04
550;BME280;20066;48.764;9.176;2023-02-14T13:08:44;99760.25;;;10.93;48.54
550;BME280;20066;48.764;9.176;2023-02-14T13:11:24;99757.59;;;10.09;50.14
550;BME280;20066;48.764;9.176;2023-02-14T13:14:02;99755.28;;;10.23;50.17
550;BME280;20066;48.764;9.176;2023-02-14T13:16:42;99750.25;;;10.34;49.45
550;BME280;20066;48.764;9.176;2023-02-14T13:19:23;99740.31;;;10.66;49.44
550;BME280;20066;48.764;9.176;2023-02-14T13:21:59;99735.16;;;10.17;49.56
550;BME280;20066;48.764;9.176;2023-02-14T13:24:33;99731.81;;;11.42;47.96
550;BME280;20066;48.764;9.176;2023-02-14T13:27:06;99728.00;;;11.28;47.50
550;BME280;20066;48.764;9.176;2023-02-14T13:29:42;99730.09;;;10.71;48.94
550;BME280;20066;48.764;9.176;2023-02-14T13:32:14;99730.47;;;11.01;47.91
550;BME280;20066;48.764;9.176;2023-02-14T13:34:46;99723.22;;;11.87;46.28
550;BME280;20066;48.764;9.176;2023-02-14T13:37:16;99726.75;;;11.56;46.86
550;BME280;20066;48.764;9.176;2023-02-14T13:39:47;99721.66;;;11.20;47.90
550;BME280;20066;48.764;9.176;2023-02-14T13:42:48;99721.16;;;11.14;48.41
550;BME280;20066;48.764;9.176;2023-02-14T13:45:51;99720.63;;;10.77;49.19
550;BME280;20066;48.764;9.176;2023-02-14T13:48:22;99721.84;;;11.27;48.42
550;BME280;20066;48.764;9.176;2023-02-14T13:50:55;99718.38;;;11.77;46.16
550;BME280;20066;48.764;9.176;2023-02-14T13:53:32;99716.28;;;11.04;48.51
550;BME280;20066;48.764;9.176;2023-02-14T13:56:02;99712.69;;;11.47;47.56
550;BME280;20066;48.764;9.176;2023-02-14T13:58:30;99705.63;;;10.92;49.41
550;BME280;20066;48.764;9.176;2023-02-14T14:04:34;99709.91;;;11.44;47.47
550;BME280;20066;48.764;9.176;2023-02-14T14:07:16;99713.06;;;12.00;46.33
550;BME280;20066;48.764;9.176;2023-02-14T14:09:54;99705.19;;;10.74;49.82
550;BME280;20066;48.764;9.176;2023-02-14T14:12:39;99703.69;;;10.61;50.37
550;BME280;20066;48.764;9.176;2023-02-14T14:15:15;99706.31;;;10.89;49.55
550;BME280;20066;48.764;9.176;2023-02-14T14:17:46;99708.91;;;11.17;48.70
550;BME280;20066;48.764;9.176;2023-02-14T14:20:45;99707.19;;;11.09;48.87